WMT3057 EHEH-LRCL
Flight info
| Callsign | WMT3057 |
|---|---|
| Flight time | 1h 57m |
| Altitude | 37000 |
| Route | VELNI Y869 SUMOP L179 MEVEL Z44 HMM L620 OMELO DCT GOLOP DCT KOZLI DCT UPLAV DCT ROMIS DCT NIDOK DCT PITOK DCT RIGSA DCT PERIT DCT BADOR DCT LARMU |
| Aircraft | A320/M-SDE1E2E3FGIJ1J4RWXY/LB1 |
Departure
| Time | 2026-05-06 09:10 |
|---|---|
| Airport | Eindhoven Airport (EHEH) |
Arrival
| Time | 2026-05-06 11:07 |
|---|---|
| Airport | Avram Iancu Cluj International Airport (LRCL) |
| Time | Latitude | Longitude | Altitude | Speed | Heading |
|---|---|---|---|---|---|
| 2026-05-06 08:43 | 51.45860 | 5.39045 | 65 ft | 0 kts | 126° |
| 2026-05-06 09:01 | 51.45862 | 5.39040 | 75 ft | 3 kts | 126° |
| 2026-05-06 09:01 | 51.45877 | 5.39005 | 69 ft | 4 kts | 126° |
| 2026-05-06 09:01 | 51.45889 | 5.38977 | 71 ft | 4 kts | 103° |
| 2026-05-06 09:02 | 51.45885 | 5.38942 | 73 ft | 4 kts | 49° |
| 2026-05-06 09:02 | 51.45871 | 5.38920 | 65 ft | 0 kts | 35° |
| 2026-05-06 09:06 | 51.45876 | 5.38926 | 70 ft | 4 kts | 35° |
| 2026-05-06 09:06 | 51.45908 | 5.38964 | 70 ft | 8 kts | 36° |
| 2026-05-06 09:07 | 51.45974 | 5.38979 | 65 ft | 11 kts | 320° |
| 2026-05-06 09:07 | 51.46018 | 5.38877 | 75 ft | 11 kts | 304° |
| 2026-05-06 09:07 | 51.46061 | 5.38779 | 71 ft | 10 kts | 305° |
| 2026-05-06 09:07 | 51.46101 | 5.38684 | 78 ft | 8 kts | 293° |
| 2026-05-06 09:08 | 51.46090 | 5.38656 | 76 ft | 0 kts | 214° |
| 2026-05-06 09:09 | 51.46037 | 5.38597 | 83 ft | 34 kts | 215° |
| 2026-05-06 09:09 | 51.45638 | 5.38151 | 73 ft | 102 kts | 215° |
| 2026-05-06 09:09 | 51.44909 | 5.37333 | 81 ft | 151 kts | 215° |
| 2026-05-06 09:09 | 51.43982 | 5.36302 | 457 ft | 165 kts | 216° |
| 2026-05-06 09:10 | 51.43029 | 5.35255 | 1081 ft | 168 kts | 216° |
| 2026-05-06 09:10 | 51.42062 | 5.34174 | 1695 ft | 171 kts | 217° |
| 2026-05-06 09:10 | 51.41033 | 5.33022 | 2014 ft | 191 kts | 216° |
| 2026-05-06 09:10 | 51.39798 | 5.31970 | 2235 ft | 213 kts | 194° |
| 2026-05-06 09:11 | 51.38258 | 5.31902 | 2490 ft | 233 kts | 163° |
| 2026-05-06 09:11 | 51.36823 | 5.33076 | 3173 ft | 232 kts | 134° |
| 2026-05-06 09:11 | 51.35900 | 5.35145 | 3943 ft | 229 kts | 106° |
| 2026-05-06 09:11 | 51.35696 | 5.37626 | 4740 ft | 226 kts | 79° |
| 2026-05-06 09:12 | 51.36190 | 5.39987 | 5533 ft | 225 kts | 63° |
| 2026-05-06 09:12 | 51.36743 | 5.42360 | 6342 ft | 230 kts | 72° |
| 2026-05-06 09:12 | 51.37015 | 5.44917 | 7114 ft | 236 kts | 84° |
| 2026-05-06 09:12 | 51.36997 | 5.47572 | 7893 ft | 241 kts | 89° |
| 2026-05-06 09:13 | 51.36938 | 5.50267 | 8672 ft | 244 kts | 89° |
| 2026-05-06 09:13 | 51.36877 | 5.52997 | 9494 ft | 247 kts | 89° |
| 2026-05-06 09:13 | 51.36820 | 5.55771 | 10243 ft | 253 kts | 88° |
| 2026-05-06 09:13 | 51.36796 | 5.58717 | 10616 ft | 277 kts | 88° |
| 2026-05-06 09:14 | 51.36797 | 5.61933 | 10948 ft | 301 kts | 88° |
| 2026-05-06 09:14 | 51.36934 | 5.65387 | 11199 ft | 320 kts | 77° |
| 2026-05-06 09:14 | 51.37702 | 5.68760 | 11754 ft | 326 kts | 61° |
| 2026-05-06 09:14 | 51.38748 | 5.72012 | 12434 ft | 331 kts | 61° |
| 2026-05-06 09:15 | 51.39804 | 5.75305 | 13166 ft | 334 kts | 63° |
| 2026-05-06 09:15 | 51.40884 | 5.78666 | 13656 ft | 345 kts | 63° |
| 2026-05-06 09:15 | 51.41993 | 5.82119 | 14183 ft | 351 kts | 63° |
| 2026-05-06 09:15 | 51.43118 | 5.85611 | 14768 ft | 354 kts | 62° |
| 2026-05-06 09:16 | 51.44248 | 5.89123 | 15425 ft | 355 kts | 62° |
| 2026-05-06 09:16 | 51.45383 | 5.92657 | 16024 ft | 359 kts | 62° |
| 2026-05-06 09:16 | 51.46530 | 5.96232 | 16616 ft | 362 kts | 62° |
| 2026-05-06 09:16 | 51.47688 | 5.99846 | 17222 ft | 366 kts | 62° |
| 2026-05-06 09:17 | 51.48842 | 6.03452 | 17807 ft | 370 kts | 62° |
| 2026-05-06 09:17 | 51.50023 | 6.07146 | 18367 ft | 374 kts | 62° |
| 2026-05-06 09:17 | 51.51212 | 6.10876 | 18904 ft | 377 kts | 62° |
| 2026-05-06 09:17 | 51.52409 | 6.14640 | 19476 ft | 379 kts | 62° |
| 2026-05-06 09:18 | 51.53612 | 6.18427 | 20037 ft | 382 kts | 62° |
| 2026-05-06 09:18 | 51.54822 | 6.22234 | 20584 ft | 384 kts | 63° |
| 2026-05-06 09:18 | 51.56037 | 6.26066 | 21095 ft | 386 kts | 63° |
| 2026-05-06 09:18 | 51.57260 | 6.29926 | 21550 ft | 390 kts | 63° |
| 2026-05-06 09:19 | 51.58492 | 6.33829 | 22019 ft | 393 kts | 64° |
| 2026-05-06 09:19 | 51.59730 | 6.37766 | 22505 ft | 395 kts | 64° |
| 2026-05-06 09:19 | 51.60972 | 6.41719 | 23004 ft | 397 kts | 64° |
| 2026-05-06 09:19 | 51.62219 | 6.45697 | 23477 ft | 399 kts | 64° |
| 2026-05-06 09:20 | 51.63473 | 6.49703 | 23877 ft | 402 kts | 64° |
| 2026-05-06 09:20 | 51.64736 | 6.53733 | 24260 ft | 404 kts | 64° |
| 2026-05-06 09:20 | 51.66006 | 6.57789 | 24674 ft | 406 kts | 64° |
| 2026-05-06 09:20 | 51.67276 | 6.61849 | 25093 ft | 407 kts | 65° |
| 2026-05-06 09:21 | 51.68552 | 6.65932 | 25507 ft | 409 kts | 64° |
| 2026-05-06 09:21 | 51.69830 | 6.70036 | 25922 ft | 410 kts | 65° |
| 2026-05-06 09:21 | 51.71106 | 6.74155 | 26347 ft | 411 kts | 65° |
| 2026-05-06 09:21 | 51.72385 | 6.78290 | 26746 ft | 413 kts | 64° |
| 2026-05-06 09:22 | 51.73670 | 6.82440 | 27146 ft | 415 kts | 64° |
| 2026-05-06 09:22 | 51.74962 | 6.86614 | 27527 ft | 417 kts | 64° |
| 2026-05-06 09:22 | 51.76258 | 6.90816 | 27942 ft | 418 kts | 65° |
| 2026-05-06 09:22 | 51.77554 | 6.95034 | 28309 ft | 420 kts | 64° |
| 2026-05-06 09:23 | 51.78851 | 6.99270 | 28696 ft | 422 kts | 65° |
| 2026-05-06 09:23 | 51.80155 | 7.03528 | 29038 ft | 424 kts | 64° |
| 2026-05-06 09:23 | 51.81465 | 7.07806 | 29428 ft | 426 kts | 65° |
| 2026-05-06 09:23 | 51.82779 | 7.12104 | 29812 ft | 428 kts | 64° |
| 2026-05-06 09:24 | 51.84064 | 7.16456 | 30119 ft | 429 kts | 69° |
| 2026-05-06 09:24 | 51.84991 | 7.21048 | 30383 ft | 431 kts | 78° |
| 2026-05-06 09:24 | 51.85466 | 7.25833 | 30632 ft | 432 kts | 87° |
| 2026-05-06 09:24 | 51.85542 | 7.30693 | 30952 ft | 432 kts | 91° |
| 2026-05-06 09:25 | 51.85563 | 7.35559 | 31281 ft | 434 kts | 91° |
| 2026-05-06 09:25 | 51.85582 | 7.40444 | 31636 ft | 434 kts | 91° |
| 2026-05-06 09:25 | 51.85603 | 7.45337 | 31991 ft | 435 kts | 91° |
| 2026-05-06 09:25 | 51.85625 | 7.50229 | 32365 ft | 435 kts | 91° |
| 2026-05-06 09:26 | 51.85644 | 7.55124 | 32738 ft | 436 kts | 91° |
| 2026-05-06 09:26 | 51.85660 | 7.60028 | 33113 ft | 436 kts | 91° |
| 2026-05-06 09:26 | 51.85673 | 7.64938 | 33496 ft | 437 kts | 91° |
| 2026-05-06 09:26 | 51.85620 | 7.69843 | 33859 ft | 436 kts | 97° |
| 2026-05-06 09:27 | 51.85154 | 7.74671 | 34141 ft | 434 kts | 105° |
| 2026-05-06 09:27 | 51.84462 | 7.79422 | 34407 ft | 435 kts | 105° |
| 2026-05-06 09:27 | 51.83779 | 7.84125 | 34624 ft | 437 kts | 105° |
| 2026-05-06 09:27 | 51.83089 | 7.88916 | 34844 ft | 439 kts | 105° |
| 2026-05-06 09:28 | 51.82400 | 7.93729 | 35088 ft | 440 kts | 105° |
| 2026-05-06 09:28 | 51.81711 | 7.98552 | 35344 ft | 441 kts | 105° |
| 2026-05-06 09:28 | 51.81018 | 8.03380 | 35591 ft | 441 kts | 105° |
| 2026-05-06 09:28 | 51.80321 | 8.08208 | 35848 ft | 442 kts | 106° |
| 2026-05-06 09:29 | 51.79619 | 8.13049 | 36118 ft | 443 kts | 106° |
| 2026-05-06 09:29 | 51.78914 | 8.17891 | 36411 ft | 443 kts | 106° |
| 2026-05-06 09:29 | 51.78203 | 8.22737 | 36652 ft | 444 kts | 106° |
| 2026-05-06 09:29 | 51.77484 | 8.27595 | 36769 ft | 446 kts | 107° |
| 2026-05-06 09:30 | 51.76758 | 8.32467 | 36800 ft | 447 kts | 107° |
| 2026-05-06 09:30 | 51.75364 | 8.42264 | 36795 ft | 448 kts | 105° |
| 2026-05-06 09:31 | 51.74030 | 8.52131 | 36786 ft | 454 kts | 105° |
| 2026-05-06 09:31 | 51.72668 | 8.62106 | 36784 ft | 456 kts | 105° |
| 2026-05-06 09:32 | 51.71277 | 8.72085 | 36788 ft | 456 kts | 106° |
| 2026-05-06 09:32 | 51.69871 | 8.82056 | 36770 ft | 456 kts | 106° |
| 2026-05-06 09:33 | 51.68452 | 8.92028 | 36772 ft | 457 kts | 106° |
| 2026-05-06 09:33 | 51.67024 | 9.02017 | 36773 ft | 457 kts | 106° |
| 2026-05-06 09:34 | 51.65590 | 9.11996 | 36769 ft | 457 kts | 106° |
| 2026-05-06 09:34 | 51.64152 | 9.21974 | 36771 ft | 458 kts | 106° |
| 2026-05-06 09:35 | 51.62704 | 9.31952 | 36762 ft | 458 kts | 106° |
| 2026-05-06 09:35 | 51.61242 | 9.41922 | 36760 ft | 458 kts | 106° |
| 2026-05-06 09:36 | 51.59772 | 9.51895 | 36765 ft | 458 kts | 106° |
| 2026-05-06 09:36 | 51.58300 | 9.61858 | 36765 ft | 458 kts | 106° |
| 2026-05-06 09:37 | 51.56817 | 9.71823 | 36748 ft | 458 kts | 107° |
| 2026-05-06 09:37 | 51.55324 | 9.81721 | 36750 ft | 459 kts | 107° |
| 2026-05-06 09:38 | 51.53807 | 9.91695 | 36753 ft | 460 kts | 107° |
| 2026-05-06 09:38 | 51.52291 | 10.01681 | 36758 ft | 460 kts | 107° |
| 2026-05-06 09:39 | 51.50763 | 10.11654 | 36758 ft | 460 kts | 107° |
| 2026-05-06 09:39 | 51.49228 | 10.21633 | 36744 ft | 461 kts | 107° |
| 2026-05-06 09:40 | 51.47684 | 10.31616 | 36752 ft | 461 kts | 107° |
| 2026-05-06 09:40 | 51.45347 | 10.46595 | 36759 ft | 462 kts | 108° |
| 2026-05-06 09:41 | 51.43770 | 10.56580 | 36769 ft | 462 kts | 108° |
| 2026-05-06 09:41 | 51.42191 | 10.66570 | 36764 ft | 463 kts | 108° |
| 2026-05-06 09:42 | 51.40605 | 10.76559 | 36758 ft | 463 kts | 108° |
| 2026-05-06 09:42 | 51.39006 | 10.86557 | 36767 ft | 463 kts | 108° |
| 2026-05-06 09:43 | 51.37396 | 10.96550 | 36772 ft | 463 kts | 108° |
| 2026-05-06 09:43 | 51.36057 | 11.04846 | 36777 ft | 464 kts | 108° |
| 2026-05-06 09:44 | 51.34432 | 11.14836 | 36760 ft | 464 kts | 108° |
| 2026-05-06 09:44 | 51.32791 | 11.24820 | 36770 ft | 464 kts | 108° |
| 2026-05-06 09:45 | 51.31142 | 11.34808 | 36775 ft | 465 kts | 108° |
| 2026-05-06 09:45 | 51.29500 | 11.44798 | 36782 ft | 465 kts | 108° |
| 2026-05-06 09:46 | 51.27832 | 11.54786 | 36774 ft | 465 kts | 109° |
| 2026-05-06 09:46 | 51.26138 | 11.64747 | 36780 ft | 465 kts | 109° |
| 2026-05-06 09:47 | 51.24453 | 11.74705 | 36781 ft | 465 kts | 109° |
| 2026-05-06 09:47 | 51.22760 | 11.84660 | 36782 ft | 465 kts | 109° |
| 2026-05-06 09:48 | 51.21064 | 11.94615 | 36791 ft | 465 kts | 109° |
| 2026-05-06 09:48 | 51.19363 | 12.04568 | 36763 ft | 465 kts | 109° |
| 2026-05-06 09:49 | 51.17649 | 12.14527 | 36755 ft | 466 kts | 109° |
| 2026-05-06 09:49 | 51.15916 | 12.24491 | 36769 ft | 467 kts | 109° |
| 2026-05-06 09:50 | 51.14170 | 12.34459 | 36782 ft | 467 kts | 109° |
| 2026-05-06 09:50 | 51.12407 | 12.44422 | 36760 ft | 468 kts | 110° |
| 2026-05-06 09:51 | 51.10632 | 12.54392 | 36765 ft | 469 kts | 110° |
| 2026-05-06 09:51 | 51.08851 | 12.64301 | 36765 ft | 470 kts | 110° |
| 2026-05-06 09:52 | 51.07044 | 12.74362 | 36773 ft | 470 kts | 110° |
| 2026-05-06 09:52 | 51.05256 | 12.84300 | 36789 ft | 471 kts | 110° |
| 2026-05-06 09:53 | 51.03445 | 12.94300 | 36773 ft | 471 kts | 110° |
| 2026-05-06 09:53 | 51.01612 | 13.04288 | 36782 ft | 471 kts | 110° |
| 2026-05-06 09:54 | 50.99763 | 13.14265 | 36786 ft | 471 kts | 110° |
| 2026-05-06 09:54 | 50.97914 | 13.24246 | 36792 ft | 471 kts | 110° |
| 2026-05-06 09:55 | 50.96063 | 13.34222 | 36768 ft | 472 kts | 110° |
| 2026-05-06 09:55 | 50.94261 | 13.44225 | 36781 ft | 472 kts | 110° |
| 2026-05-06 09:56 | 50.92478 | 13.54247 | 36789 ft | 472 kts | 110° |
| 2026-05-06 09:56 | 50.90623 | 13.64223 | 36795 ft | 472 kts | 111° |
| 2026-05-06 09:57 | 50.88724 | 13.74153 | 36797 ft | 471 kts | 111° |
| 2026-05-06 09:57 | 50.86825 | 13.84102 | 36797 ft | 472 kts | 111° |
| 2026-05-06 09:58 | 50.84940 | 13.94036 | 36792 ft | 471 kts | 111° |
| 2026-05-06 09:58 | 50.82154 | 14.03224 | 36786 ft | 458 kts | 130° |
| 2026-05-06 09:59 | 50.78222 | 14.11080 | 36786 ft | 456 kts | 134° |
| 2026-05-06 09:59 | 50.74255 | 14.18887 | 36757 ft | 456 kts | 134° |
| 2026-05-06 10:00 | 50.70291 | 14.26697 | 36775 ft | 456 kts | 134° |
| 2026-05-06 10:00 | 50.66315 | 14.34491 | 36788 ft | 456 kts | 135° |
| 2026-05-06 10:01 | 50.62334 | 14.42267 | 36799 ft | 456 kts | 135° |
| 2026-05-06 10:01 | 50.58342 | 14.50010 | 36806 ft | 454 kts | 136° |
| 2026-05-06 10:02 | 50.54120 | 14.57353 | 36782 ft | 451 kts | 140° |
| 2026-05-06 10:02 | 50.49729 | 14.64355 | 36797 ft | 450 kts | 141° |
| 2026-05-06 10:03 | 50.45346 | 14.71372 | 36816 ft | 451 kts | 140° |
| 2026-05-06 10:03 | 50.41006 | 14.78466 | 36817 ft | 450 kts | 140° |
| 2026-05-06 10:04 | 50.36689 | 14.85588 | 36801 ft | 451 kts | 139° |
| 2026-05-06 10:04 | 50.32360 | 14.92694 | 36782 ft | 451 kts | 140° |
| 2026-05-06 10:05 | 50.28001 | 14.99785 | 36787 ft | 452 kts | 140° |
| 2026-05-06 10:05 | 50.23628 | 15.06869 | 36793 ft | 453 kts | 140° |
| 2026-05-06 10:06 | 50.19242 | 15.13960 | 36806 ft | 454 kts | 140° |
| 2026-05-06 10:06 | 50.14883 | 15.20990 | 36816 ft | 454 kts | 140° |
| 2026-05-06 10:07 | 50.10489 | 15.28056 | 36794 ft | 454 kts | 140° |
| 2026-05-06 10:07 | 50.06230 | 15.35339 | 36812 ft | 460 kts | 131° |
| 2026-05-06 10:08 | 50.03101 | 15.44121 | 36821 ft | 467 kts | 122° |
| 2026-05-06 10:08 | 50.00175 | 15.53131 | 36827 ft | 467 kts | 122° |
| 2026-05-06 10:09 | 49.97227 | 15.62119 | 36845 ft | 467 kts | 122° |
| 2026-05-06 10:09 | 49.94269 | 15.71100 | 36830 ft | 467 kts | 122° |
| 2026-05-06 10:10 | 49.91312 | 15.80077 | 36828 ft | 467 kts | 122° |
| 2026-05-06 10:10 | 49.88352 | 15.89042 | 36841 ft | 467 kts | 122° |
| 2026-05-06 10:11 | 49.85387 | 15.97990 | 36849 ft | 466 kts | 122° |
| 2026-05-06 10:11 | 49.82414 | 16.06919 | 36822 ft | 466 kts | 123° |
| 2026-05-06 10:12 | 49.79459 | 16.15748 | 36848 ft | 464 kts | 123° |
| 2026-05-06 10:12 | 49.76468 | 16.24659 | 36855 ft | 463 kts | 123° |
| 2026-05-06 10:13 | 49.73515 | 16.33432 | 36855 ft | 463 kts | 123° |
| 2026-05-06 10:13 | 49.70537 | 16.42235 | 36855 ft | 462 kts | 123° |
| 2026-05-06 10:14 | 49.67558 | 16.51017 | 36850 ft | 461 kts | 123° |
| 2026-05-06 10:14 | 49.64579 | 16.59775 | 36854 ft | 460 kts | 123° |
| 2026-05-06 10:15 | 49.61603 | 16.68502 | 36858 ft | 460 kts | 123° |
| 2026-05-06 10:15 | 49.58618 | 16.77216 | 36859 ft | 459 kts | 123° |
| 2026-05-06 10:16 | 49.55632 | 16.85914 | 36837 ft | 459 kts | 123° |
| 2026-05-06 10:16 | 49.52642 | 16.94589 | 36850 ft | 458 kts | 123° |
| 2026-05-06 10:17 | 49.49644 | 17.03248 | 36856 ft | 458 kts | 123° |
| 2026-05-06 10:17 | 49.46643 | 17.11889 | 36865 ft | 458 kts | 124° |
| 2026-05-06 10:18 | 49.43637 | 17.20505 | 36864 ft | 457 kts | 124° |
| 2026-05-06 10:18 | 49.40623 | 17.29120 | 36840 ft | 458 kts | 124° |
| 2026-05-06 10:19 | 49.37608 | 17.37739 | 36850 ft | 459 kts | 124° |
| 2026-05-06 10:19 | 49.34595 | 17.46304 | 36853 ft | 459 kts | 124° |
| 2026-05-06 10:20 | 49.31554 | 17.54926 | 36860 ft | 460 kts | 123° |
| 2026-05-06 10:20 | 49.28599 | 17.63707 | 36850 ft | 461 kts | 122° |
| 2026-05-06 10:21 | 49.25718 | 17.72492 | 36875 ft | 461 kts | 122° |
| 2026-05-06 10:21 | 49.22818 | 17.81232 | 36881 ft | 461 kts | 122° |
| 2026-05-06 10:22 | 49.19884 | 17.89937 | 36890 ft | 460 kts | 122° |
| 2026-05-06 10:22 | 49.16935 | 17.98626 | 36879 ft | 460 kts | 122° |
| 2026-05-06 10:23 | 49.14008 | 18.07252 | 36874 ft | 460 kts | 122° |
| 2026-05-06 10:23 | 49.11043 | 18.15924 | 36876 ft | 461 kts | 123° |
| 2026-05-06 10:24 | 49.08000 | 18.24523 | 36878 ft | 461 kts | 123° |
| 2026-05-06 10:24 | 49.04927 | 18.33101 | 36887 ft | 461 kts | 123° |
| 2026-05-06 10:25 | 49.01855 | 18.41683 | 36884 ft | 461 kts | 123° |
| 2026-05-06 10:25 | 48.98792 | 18.50269 | 36899 ft | 461 kts | 123° |
| 2026-05-06 10:26 | 48.95723 | 18.58841 | 36902 ft | 461 kts | 123° |
| 2026-05-06 10:26 | 48.92647 | 18.67391 | 36906 ft | 461 kts | 123° |
| 2026-05-06 10:27 | 48.89561 | 18.75924 | 36893 ft | 460 kts | 123° |
| 2026-05-06 10:27 | 48.86999 | 18.82998 | 36898 ft | 460 kts | 123° |
| 2026-05-06 10:28 | 48.83499 | 18.93039 | 36897 ft | 460 kts | 121° |
| 2026-05-06 10:28 | 48.80574 | 19.01680 | 36905 ft | 460 kts | 121° |
| 2026-05-06 10:29 | 48.77620 | 19.10286 | 36899 ft | 460 kts | 121° |
| 2026-05-06 10:29 | 48.74633 | 19.18867 | 36912 ft | 460 kts | 122° |
| 2026-05-06 10:30 | 48.71655 | 19.27373 | 36916 ft | 460 kts | 122° |
| 2026-05-06 10:30 | 48.68655 | 19.35934 | 36920 ft | 460 kts | 122° |
| 2026-05-06 10:31 | 48.65655 | 19.44499 | 36935 ft | 461 kts | 122° |
| 2026-05-06 10:31 | 48.62643 | 19.53049 | 36928 ft | 460 kts | 122° |
| 2026-05-06 10:32 | 48.59623 | 19.61591 | 36937 ft | 461 kts | 122° |
| 2026-05-06 10:32 | 48.57086 | 19.68742 | 36929 ft | 461 kts | 122° |
| 2026-05-06 10:33 | 48.54068 | 19.77214 | 36940 ft | 462 kts | 122° |
| 2026-05-06 10:33 | 48.51024 | 19.85745 | 36919 ft | 462 kts | 122° |
| 2026-05-06 10:34 | 48.47975 | 19.94279 | 36930 ft | 463 kts | 122° |
| 2026-05-06 10:34 | 48.44909 | 20.02813 | 36937 ft | 463 kts | 122° |
| 2026-05-06 10:35 | 48.41836 | 20.11332 | 36944 ft | 463 kts | 122° |
| 2026-05-06 10:35 | 48.38758 | 20.19851 | 36921 ft | 463 kts | 122° |
| 2026-05-06 10:36 | 48.35677 | 20.28361 | 36926 ft | 463 kts | 122° |
| 2026-05-06 10:36 | 48.32582 | 20.36868 | 36936 ft | 464 kts | 122° |
| 2026-05-06 10:37 | 48.29292 | 20.45186 | 36948 ft | 463 kts | 126° |
| 2026-05-06 10:37 | 48.25788 | 20.53276 | 36946 ft | 462 kts | 127° |
| 2026-05-06 10:38 | 48.22282 | 20.61354 | 36937 ft | 462 kts | 125° |
| 2026-05-06 10:38 | 48.18828 | 20.69490 | 36948 ft | 462 kts | 125° |
| 2026-05-06 10:39 | 48.15394 | 20.77633 | 36948 ft | 463 kts | 125° |
| 2026-05-06 10:39 | 48.11939 | 20.85770 | 36953 ft | 463 kts | 125° |
| 2026-05-06 10:40 | 48.08473 | 20.93886 | 36953 ft | 463 kts | 125° |
| 2026-05-06 10:40 | 48.05021 | 21.01927 | 36958 ft | 463 kts | 125° |
| 2026-05-06 10:41 | 48.01536 | 21.10009 | 36966 ft | 463 kts | 125° |
| 2026-05-06 10:41 | 47.98053 | 21.18092 | 36964 ft | 463 kts | 125° |
| 2026-05-06 10:42 | 47.94573 | 21.26162 | 36967 ft | 463 kts | 125° |
| 2026-05-06 10:42 | 47.91086 | 21.34223 | 36974 ft | 463 kts | 125° |
| 2026-05-06 10:43 | 47.87582 | 21.42276 | 36642 ft | 463 kts | 125° |
| 2026-05-06 10:43 | 47.85831 | 21.46288 | 36373 ft | 462 kts | 125° |
| 2026-05-06 10:44 | 47.82319 | 21.54321 | 35758 ft | 463 kts | 125° |
| 2026-05-06 10:44 | 47.80560 | 21.58334 | 35290 ft | 463 kts | 125° |
| 2026-05-06 10:44 | 47.78799 | 21.62357 | 34833 ft | 465 kts | 125° |
| 2026-05-06 10:44 | 47.77031 | 21.66390 | 34356 ft | 465 kts | 125° |
| 2026-05-06 10:45 | 47.75262 | 21.70422 | 33857 ft | 466 kts | 125° |
| 2026-05-06 10:45 | 47.73489 | 21.74451 | 33342 ft | 466 kts | 125° |
| 2026-05-06 10:45 | 47.71711 | 21.78486 | 32844 ft | 468 kts | 125° |
| 2026-05-06 10:45 | 47.69927 | 21.82528 | 32364 ft | 467 kts | 125° |
| 2026-05-06 10:46 | 47.68150 | 21.86549 | 31856 ft | 465 kts | 125° |
| 2026-05-06 10:46 | 47.66377 | 21.90551 | 31389 ft | 462 kts | 125° |
| 2026-05-06 10:46 | 47.64614 | 21.94525 | 30927 ft | 460 kts | 125° |
| 2026-05-06 10:46 | 47.62969 | 21.98589 | 29919 ft | 460 kts | 121° |
| 2026-05-06 10:47 | 47.61453 | 22.02707 | 29080 ft | 450 kts | 119° |
| 2026-05-06 10:47 | 47.60012 | 22.06796 | 28573 ft | 445 kts | 118° |
| 2026-05-06 10:47 | 47.58613 | 22.10853 | 28309 ft | 441 kts | 118° |
| 2026-05-06 10:47 | 47.57223 | 22.14901 | 28040 ft | 440 kts | 118° |
| 2026-05-06 10:48 | 47.55835 | 22.18916 | 27592 ft | 437 kts | 118° |
| 2026-05-06 10:48 | 47.54439 | 22.22899 | 27148 ft | 434 kts | 119° |
| 2026-05-06 10:48 | 47.53039 | 22.26842 | 26698 ft | 431 kts | 119° |
| 2026-05-06 10:48 | 47.51641 | 22.30743 | 26240 ft | 427 kts | 119° |
| 2026-05-06 10:49 | 47.50252 | 22.34599 | 25794 ft | 423 kts | 120° |
| 2026-05-06 10:49 | 47.48876 | 22.38421 | 25310 ft | 420 kts | 120° |
| 2026-05-06 10:49 | 47.47508 | 22.42225 | 24853 ft | 417 kts | 119° |
| 2026-05-06 10:49 | 47.46151 | 22.45999 | 24374 ft | 414 kts | 119° |
| 2026-05-06 10:50 | 47.44806 | 22.49740 | 23895 ft | 411 kts | 120° |
| 2026-05-06 10:50 | 47.43471 | 22.53452 | 23480 ft | 407 kts | 120° |
| 2026-05-06 10:50 | 47.42140 | 22.57146 | 22891 ft | 406 kts | 120° |
| 2026-05-06 10:50 | 47.40843 | 22.60745 | 22455 ft | 401 kts | 119° |
| 2026-05-06 10:51 | 47.39541 | 22.64352 | 22108 ft | 394 kts | 120° |
| 2026-05-06 10:51 | 47.38246 | 22.67929 | 21494 ft | 394 kts | 120° |
| 2026-05-06 10:51 | 47.36964 | 22.71461 | 21072 ft | 389 kts | 120° |
| 2026-05-06 10:51 | 47.35688 | 22.74976 | 20553 ft | 387 kts | 120° |
| 2026-05-06 10:52 | 47.34423 | 22.78462 | 20101 ft | 383 kts | 120° |
| 2026-05-06 10:52 | 47.33172 | 22.81906 | 19648 ft | 379 kts | 121° |
| 2026-05-06 10:52 | 47.31929 | 22.85317 | 19190 ft | 376 kts | 121° |
| 2026-05-06 10:52 | 47.30696 | 22.88697 | 18749 ft | 373 kts | 121° |
| 2026-05-06 10:53 | 47.29470 | 22.92047 | 18284 ft | 370 kts | 121° |
| 2026-05-06 10:53 | 47.28253 | 22.95371 | 17803 ft | 367 kts | 121° |
| 2026-05-06 10:53 | 47.27047 | 22.98667 | 17372 ft | 363 kts | 121° |
| 2026-05-06 10:53 | 47.25855 | 23.01921 | 16937 ft | 360 kts | 121° |
| 2026-05-06 10:54 | 47.24675 | 23.05148 | 16499 ft | 357 kts | 121° |
| 2026-05-06 10:54 | 47.23503 | 23.08353 | 16068 ft | 354 kts | 121° |
| 2026-05-06 10:54 | 47.22340 | 23.11522 | 15652 ft | 351 kts | 121° |
| 2026-05-06 10:54 | 47.21182 | 23.14666 | 15244 ft | 348 kts | 121° |
| 2026-05-06 10:55 | 47.20033 | 23.17782 | 14822 ft | 346 kts | 121° |
| 2026-05-06 10:55 | 47.18889 | 23.20877 | 14408 ft | 343 kts | 122° |
| 2026-05-06 10:55 | 47.17752 | 23.23949 | 13993 ft | 340 kts | 122° |
| 2026-05-06 10:55 | 47.16625 | 23.26993 | 13563 ft | 338 kts | 122° |
| 2026-05-06 10:56 | 47.15507 | 23.30010 | 13146 ft | 335 kts | 121° |
| 2026-05-06 10:56 | 47.14398 | 23.33001 | 12741 ft | 332 kts | 121° |
| 2026-05-06 10:56 | 47.13297 | 23.35959 | 12338 ft | 329 kts | 121° |
| 2026-05-06 10:56 | 47.12204 | 23.38895 | 11932 ft | 327 kts | 121° |
| 2026-05-06 10:57 | 47.11113 | 23.41824 | 11543 ft | 326 kts | 121° |
| 2026-05-06 10:57 | 47.10031 | 23.44734 | 11144 ft | 324 kts | 121° |
| 2026-05-06 10:57 | 47.08952 | 23.47626 | 10758 ft | 323 kts | 121° |
| 2026-05-06 10:57 | 47.07874 | 23.50509 | 10360 ft | 321 kts | 121° |
| 2026-05-06 10:58 | 47.06804 | 23.53372 | 10025 ft | 318 kts | 121° |
| 2026-05-06 10:58 | 47.05739 | 23.56213 | 9953 ft | 319 kts | 121° |
| 2026-05-06 10:58 | 47.04685 | 23.59032 | 9966 ft | 320 kts | 121° |
| 2026-05-06 10:58 | 47.03617 | 23.61887 | 9967 ft | 320 kts | 121° |
| 2026-05-06 10:59 | 47.02581 | 23.64662 | 9960 ft | 299 kts | 122° |
| 2026-05-06 10:59 | 47.01619 | 23.67243 | 9898 ft | 280 kts | 122° |
| 2026-05-06 10:59 | 47.00672 | 23.69762 | 9110 ft | 288 kts | 122° |
| 2026-05-06 10:59 | 46.99687 | 23.72370 | 8199 ft | 295 kts | 122° |
| 2026-05-06 11:00 | 46.98672 | 23.75054 | 7078 ft | 309 kts | 122° |
| 2026-05-06 11:00 | 46.97614 | 23.77838 | 6603 ft | 314 kts | 122° |
| 2026-05-06 11:00 | 46.96580 | 23.80572 | 6262 ft | 299 kts | 122° |
| 2026-05-06 11:00 | 46.95600 | 23.83170 | 5897 ft | 285 kts | 122° |
| 2026-05-06 11:01 | 46.94653 | 23.85627 | 5636 ft | 269 kts | 127° |
| 2026-05-06 11:01 | 46.93470 | 23.87596 | 5398 ft | 249 kts | 143° |
| 2026-05-06 11:01 | 46.92072 | 23.88922 | 5149 ft | 232 kts | 158° |
| 2026-05-06 11:01 | 46.90605 | 23.89689 | 4898 ft | 218 kts | 164° |
| 2026-05-06 11:02 | 46.89183 | 23.90356 | 4654 ft | 211 kts | 163° |
| 2026-05-06 11:02 | 46.87797 | 23.91012 | 4412 ft | 210 kts | 163° |
| 2026-05-06 11:02 | 46.86418 | 23.91642 | 4136 ft | 206 kts | 168° |
| 2026-05-06 11:02 | 46.85025 | 23.91542 | 3971 ft | 200 kts | 199° |
| 2026-05-06 11:03 | 46.83888 | 23.90447 | 3833 ft | 197 kts | 229° |
| 2026-05-06 11:03 | 46.83267 | 23.88676 | 3673 ft | 197 kts | 249° |
| 2026-05-06 11:03 | 46.82853 | 23.86788 | 3400 ft | 191 kts | 249° |
| 2026-05-06 11:03 | 46.82454 | 23.84978 | 3154 ft | 185 kts | 249° |
| 2026-05-06 11:04 | 46.82064 | 23.83226 | 2913 ft | 179 kts | 248° |
| 2026-05-06 11:04 | 46.81685 | 23.81529 | 2702 ft | 171 kts | 246° |
| 2026-05-06 11:04 | 46.81333 | 23.79950 | 2488 ft | 156 kts | 246° |
| 2026-05-06 11:04 | 46.81012 | 23.78518 | 2293 ft | 146 kts | 246° |
| 2026-05-06 11:05 | 46.80700 | 23.77128 | 2110 ft | 143 kts | 246° |
| 2026-05-06 11:05 | 46.80389 | 23.75747 | 1918 ft | 144 kts | 247° |
| 2026-05-06 11:05 | 46.80080 | 23.74369 | 1728 ft | 142 kts | 244° |
| 2026-05-06 11:05 | 46.79775 | 23.73013 | 1539 ft | 143 kts | 246° |
| 2026-05-06 11:06 | 46.79460 | 23.71600 | 1341 ft | 148 kts | 248° |
| 2026-05-06 11:06 | 46.79143 | 23.70176 | 1144 ft | 148 kts | 246° |
| 2026-05-06 11:06 | 46.78833 | 23.68791 | 1028 ft | 130 kts | 252° |
| 2026-05-06 11:06 | 46.78607 | 23.67788 | 1035 ft | 79 kts | 251° |
| 2026-05-06 11:07 | 46.78502 | 23.67316 | 1038 ft | 22 kts | 251° |
| 2026-05-06 11:07 | 46.78434 | 23.67185 | 1039 ft | 16 kts | 188° |
| 2026-05-06 11:07 | 46.78349 | 23.67285 | 1038 ft | 18 kts | 115° |
| 2026-05-06 11:07 | 46.78357 | 23.67472 | 1037 ft | 20 kts | 81° |
| 2026-05-06 11:08 | 46.78388 | 23.67686 | 1035 ft | 23 kts | 79° |
| 2026-05-06 11:08 | 46.78418 | 23.67907 | 1034 ft | 21 kts | 79° |
| 2026-05-06 11:08 | 46.78446 | 23.68130 | 1033 ft | 20 kts | 77° |
| 2026-05-06 11:08 | 46.78477 | 23.68331 | 1032 ft | 17 kts | 79° |
| 2026-05-06 11:09 | 46.78501 | 23.68520 | 1031 ft | 20 kts | 78° |
| 2026-05-06 11:09 | 46.78513 | 23.68601 | 1030 ft | 0 kts | 78° |
| 2026-05-06 11:09 | 46.78520 | 23.68650 | 1030 ft | 15 kts | 78° |
| 2026-05-06 11:09 | 46.78541 | 23.68826 | 1027 ft | 19 kts | 81° |
| 2026-05-06 11:10 | 46.78570 | 23.69022 | 1025 ft | 20 kts | 78° |
| 2026-05-06 11:10 | 46.78595 | 23.69216 | 1027 ft | 13 kts | 78° |
| 2026-05-06 11:10 | 46.78575 | 23.69322 | 1026 ft | 13 kts | 165° |
| 2026-05-06 11:10 | 46.78504 | 23.69324 | 1024 ft | 5 kts | 252° |
| 2026-05-06 11:11 | 46.78498 | 23.69280 | 1027 ft | 3 kts | 252° |
| 2026-05-06 11:11 | 46.78496 | 23.69272 | 1024 ft | 0 kts | 252° |